createdAt,value
2019-05-07T00:02:07.323Z,9.20
2019-05-07T00:04:36.834Z,9.20
2019-05-07T00:07:06.891Z,9.10
2019-05-07T00:09:36.559Z,9.10
2019-05-07T00:12:06.457Z,9.10
2019-05-07T00:14:36.183Z,9.10
2019-05-07T00:17:05.811Z,9.10
2019-05-07T00:19:35.298Z,9.20
2019-05-07T00:22:04.887Z,9.20
2019-05-07T00:24:34.415Z,9.10
2019-05-07T00:27:03.918Z,9.20
2019-05-07T00:29:33.424Z,9.10
2019-05-07T00:32:03.143Z,9.20
2019-05-07T00:34:34.285Z,9.20
2019-05-07T00:37:17.370Z,9.20
2019-05-07T00:39:57.344Z,9.10
2019-05-07T00:42:37.833Z,9.10
2019-05-07T00:45:20.069Z,9.10
2019-05-07T00:47:43.415Z,9.10
2019-05-07T00:50:17.681Z,9.10
2019-05-07T00:52:47.126Z,9.10
2019-05-07T00:55:16.597Z,9.10
2019-05-07T00:57:46.093Z,9.10
2019-05-07T01:00:15.886Z,9.00
2019-05-07T01:02:45.346Z,9.10
2019-05-07T01:05:14.909Z,9.10
2019-05-07T01:07:44.383Z,9.00
2019-05-07T01:10:14.002Z,9.00
2019-05-07T01:12:43.475Z,9.00
2019-05-07T01:15:27.135Z,9.00
2019-05-07T01:17:44.515Z,9.00
2019-05-07T01:20:14.115Z,9.00
2019-05-07T01:22:43.621Z,8.90
2019-05-07T01:25:13.380Z,8.90
2019-05-07T01:27:42.856Z,8.90
2019-05-07T01:30:13.046Z,8.90
2019-05-07T01:32:46.828Z,8.80
2019-05-07T01:35:17.950Z,8.80
2019-05-07T01:37:47.532Z,8.80
2019-05-07T01:40:17.046Z,8.80
2019-05-07T01:42:46.603Z,8.80
2019-05-07T01:45:16.875Z,8.70
2019-05-07T01:47:46.377Z,8.70
2019-05-07T01:50:16.058Z,8.70
2019-05-07T01:52:45.564Z,8.70
2019-05-07T01:55:15.360Z,8.60
2019-05-07T01:57:44.846Z,8.60
2019-05-07T02:00:14.665Z,8.60
2019-05-07T02:02:45.844Z,8.50
2019-05-07T02:05:19.647Z,8.60
2019-05-07T02:07:53.556Z,8.50
2019-05-07T02:10:24.681Z,8.50
2019-05-07T02:12:54.126Z,8.50
2019-05-07T02:15:23.670Z,8.50
2019-05-07T02:17:53.346Z,8.50
2019-05-07T02:20:22.826Z,8.50
2019-05-07T02:22:53.250Z,8.50
2019-05-07T02:25:22.962Z,8.40
2019-05-07T02:27:52.952Z,8.50
2019-05-07T02:30:23.838Z,8.50
2019-05-07T02:32:54.242Z,8.50
2019-05-07T02:35:24.040Z,8.50
2019-05-07T02:37:56.789Z,8.50
2019-05-07T02:40:33.703Z,8.50
2019-05-07T02:43:03.027Z,8.50
2019-05-07T02:45:43.772Z,8.50
2019-05-07T02:48:12.980Z,8.60
2019-05-07T02:50:44.238Z,8.60
2019-05-07T02:53:18.014Z,8.60
2019-05-07T02:55:48.232Z,8.60
2019-05-07T02:58:17.655Z,8.60
2019-05-07T03:00:47.279Z,8.60
2019-05-07T03:03:16.766Z,8.60
2019-05-07T03:05:46.359Z,8.70
2019-05-07T03:08:15.984Z,8.70
2019-05-07T03:10:45.566Z,8.70
2019-05-07T03:13:15.051Z,8.70
2019-05-07T03:15:44.738Z,8.70
2019-05-07T03:18:18.806Z,8.70
2019-05-07T03:20:59.610Z,8.80
2019-05-07T03:23:33.761Z,8.80
2019-05-07T03:26:15.480Z,8.80
2019-05-07T03:28:53.731Z,8.80
2019-05-07T03:31:35.574Z,8.80
2019-05-07T03:34:06.931Z,8.80
2019-05-07T03:36:47.530Z,8.90
2019-05-07T03:39:14.638Z,8.90
2019-05-07T03:41:45.157Z,8.90
2019-05-07T03:44:33.801Z,8.90
2019-05-07T03:47:06.381Z,8.90
2019-05-07T03:49:36.426Z,8.90
2019-05-07T03:52:05.938Z,8.90
2019-05-07T03:54:35.466Z,8.90
2019-05-07T03:57:11.181Z,8.90
2019-05-07T03:59:36.201Z,8.90
2019-05-07T04:02:06.620Z,9.00
2019-05-07T04:04:36.150Z,9.00
2019-05-07T04:07:05.919Z,9.00
2019-05-07T04:09:35.306Z,9.00
2019-05-07T04:12:05.064Z,9.00
2019-05-07T04:14:34.898Z,9.00
2019-05-07T04:17:14.379Z,9.00
2019-05-07T04:19:36.013Z,9.00
2019-05-07T04:22:05.291Z,9.00
2019-05-07T04:24:39.227Z,9.00
2019-05-07T04:27:12.864Z,9.00
2019-05-07T04:29:42.834Z,9.00
2019-05-07T04:32:14.516Z,9.00
2019-05-07T04:34:57.684Z,9.00
2019-05-07T04:37:27.173Z,9.00
2019-05-07T04:39:56.672Z,9.00
2019-05-07T04:42:26.316Z,9.00
2019-05-07T04:44:55.890Z,9.00
2019-05-07T04:47:38.454Z,9.00
2019-05-07T04:49:56.532Z,9.10
2019-05-07T04:52:36.881Z,9.10
2019-05-07T04:55:07.873Z,9.10
2019-05-07T04:57:37.370Z,9.20
2019-05-07T05:00:09.855Z,9.20
2019-05-07T05:02:43.765Z,9.30
2019-05-07T05:05:14.529Z,9.40
2019-05-07T05:07:44.025Z,9.40
2019-05-07T05:10:13.818Z,9.50
2019-05-07T05:12:43.317Z,9.50
2019-05-07T05:15:13.119Z,9.60
2019-05-07T05:17:50.450Z,9.60
2019-05-07T05:20:16.060Z,9.70
2019-05-07T05:22:47.172Z,9.80
2019-05-07T05:25:33.507Z,9.90
2019-05-07T05:28:02.955Z,9.90
2019-05-07T05:30:49.385Z,10.00
2019-05-07T05:33:18.886Z,10.00
2019-05-07T05:35:49.214Z,10.10
2019-05-07T05:38:18.778Z,10.10
2019-05-07T05:40:48.339Z,10.20
2019-05-07T05:43:19.447Z,10.30
2019-05-07T05:45:52.893Z,10.30
2019-05-07T05:48:22.355Z,10.40
2019-05-07T05:50:53.835Z,10.40
2019-05-07T05:53:25.127Z,10.50
2019-05-07T05:55:56.297Z,10.50
2019-05-07T05:58:36.383Z,10.50
2019-05-07T06:01:16.420Z,10.60
2019-05-07T06:03:53.422Z,10.60
2019-05-07T06:06:39.657Z,10.60
2019-05-07T06:09:12.336Z,10.70
2019-05-07T06:11:49.386Z,10.80
2019-05-07T06:14:23.338Z,10.90
2019-05-07T06:17:12.888Z,11.00
2019-05-07T06:19:59.594Z,11.10
2019-05-07T06:22:32.945Z,11.20
2019-05-07T06:25:06.414Z,11.30
2019-05-07T06:27:35.893Z,11.40
2019-05-07T06:30:06.808Z,11.50
2019-05-07T06:32:36.390Z,11.60
2019-05-07T06:35:07.461Z,11.70
2019-05-07T06:37:37.243Z,11.90
2019-05-07T06:40:12.168Z,12.00
2019-05-07T06:42:46.222Z,12.20
2019-05-07T06:45:35.465Z,12.30
2019-05-07T06:48:38.097Z,12.50
2019-05-07T06:50:58.670Z,12.60
2019-05-07T06:53:33.003Z,12.80
2019-05-07T06:56:03.387Z,12.90
2019-05-07T06:58:37.796Z,13.00
2019-05-07T07:01:09.082Z,13.10
2019-05-07T07:03:41.970Z,13.20
2019-05-07T07:06:22.959Z,13.30
2019-05-07T07:08:57.115Z,13.40
2019-05-07T07:11:43.352Z,13.60
2019-05-07T07:14:12.850Z,13.70
2019-05-07T07:16:42.518Z,13.80
2019-05-07T07:19:12.506Z,13.90
2019-05-07T07:21:42.704Z,13.90
2019-05-07T07:24:12.791Z,13.90
2019-05-07T07:26:42.426Z,13.90
2019-05-07T07:29:13.559Z,13.90
2019-05-07T07:31:47.578Z,13.90
2019-05-07T07:34:18.666Z,13.90
2019-05-07T07:37:05.047Z,14.00
2019-05-07T07:39:23.734Z,14.00
2019-05-07T07:41:57.654Z,14.10
2019-05-07T07:44:27.189Z,14.20
2019-05-07T07:46:56.670Z,14.30
2019-05-07T07:49:26.183Z,14.30
2019-05-07T07:51:55.673Z,14.40
2019-05-07T07:54:25.178Z,14.50
2019-05-07T07:56:56.844Z,14.60
2019-05-07T07:59:28.181Z,14.80
2019-05-07T08:02:08.271Z,14.90
2019-05-07T08:04:37.841Z,15.00
2019-05-07T08:07:07.324Z,15.10
2019-05-07T08:09:37.470Z,15.20
2019-05-07T08:12:07.340Z,15.30
2019-05-07T08:14:36.978Z,15.40
2019-05-07T08:17:08.171Z,15.50
2019-05-07T08:19:37.635Z,15.50
2019-05-07T08:22:07.196Z,15.60
2019-05-07T08:24:37.467Z,15.60
2019-05-07T08:27:07.098Z,15.80
2019-05-07T08:29:39.602Z,15.90
2019-05-07T08:32:26.896Z,16.00
2019-05-07T08:35:02.339Z,16.20
2019-05-07T08:37:32.234Z,16.30
2019-05-07T08:40:03.067Z,16.40
2019-05-07T08:42:32.746Z,16.60
2019-05-07T08:45:24.253Z,16.70
2019-05-07T08:47:53.255Z,16.90
2019-05-07T08:50:22.731Z,17.10
2019-05-07T08:52:52.286Z,17.30
2019-05-07T08:55:21.889Z,17.40
2019-05-07T08:57:52.509Z,17.60
2019-05-07T09:00:23.909Z,17.60
2019-05-07T09:02:53.249Z,17.70
2019-05-07T09:05:22.938Z,17.70
2019-05-07T09:07:52.537Z,17.80
2019-05-07T09:10:21.968Z,17.90
2019-05-07T09:12:52.641Z,17.90
2019-05-07T09:15:22.723Z,18.00
2019-05-07T09:17:52.724Z,18.10
2019-05-07T09:20:22.863Z,18.30
2019-05-07T09:22:52.625Z,18.40
2019-05-07T09:25:22.432Z,18.60
2019-05-07T09:27:53.719Z,18.70
2019-05-07T09:30:42.078Z,18.90
2019-05-07T09:33:13.508Z,19.10
2019-05-07T09:35:44.764Z,19.20
2019-05-07T09:38:14.241Z,19.10
2019-05-07T09:40:43.781Z,19.00
2019-05-07T09:43:13.310Z,18.80
2019-05-07T09:45:42.812Z,18.70
2019-05-07T09:48:12.456Z,18.50
2019-05-07T09:50:42.920Z,18.40
2019-05-07T09:53:12.922Z,18.10
2019-05-07T09:55:42.738Z,17.80
2019-05-07T09:58:12.715Z,17.30
2019-05-07T10:00:42.667Z,17.10
2019-05-07T10:03:12.849Z,16.80
2019-05-07T10:05:42.958Z,16.60
2019-05-07T10:08:13.131Z,16.40
2019-05-07T10:10:44.577Z,16.20
2019-05-07T10:13:15.759Z,16.20
2019-05-07T10:15:45.424Z,16.20
2019-05-07T10:18:16.163Z,16.20
2019-05-07T10:20:48.855Z,16.30
2019-05-07T10:23:22.907Z,16.50
2019-05-07T10:25:55.195Z,16.70
2019-05-07T10:28:25.208Z,16.90
2019-05-07T10:30:55.561Z,17.20
2019-05-07T10:33:25.257Z,17.50
2019-05-07T10:35:54.772Z,17.80
2019-05-07T10:38:24.239Z,18.00
2019-05-07T10:40:53.776Z,18.10
2019-05-07T10:43:23.331Z,18.20
2019-05-07T10:45:54.828Z,18.20
2019-05-07T10:48:43.879Z,18.20
2019-05-07T10:51:13.467Z,18.20
2019-05-07T10:53:43.234Z,18.20
2019-05-07T10:56:13.138Z,18.20
2019-05-07T10:58:42.656Z,18.30
2019-05-07T11:01:14.510Z,18.30
2019-05-07T11:03:44.074Z,18.20
2019-05-07T11:06:13.642Z,18.10
2019-05-07T11:08:43.183Z,17.90
2019-05-07T11:11:12.744Z,17.70
2019-05-07T11:13:42.318Z,17.50
2019-05-07T11:16:13.428Z,17.40
2019-05-07T11:18:44.547Z,17.30
2019-05-07T11:21:14.339Z,17.20
2019-05-07T11:23:43.842Z,17.10
2019-05-07T11:26:13.370Z,17.10
2019-05-07T11:28:42.836Z,17.10
2019-05-07T11:31:12.563Z,17.10
2019-05-07T11:33:42.024Z,17.10
2019-05-07T11:36:11.522Z,17.10
2019-05-07T11:38:41.840Z,17.10
2019-05-07T11:41:12.847Z,17.10
2019-05-07T11:43:46.593Z,17.10
2019-05-07T11:46:27.390Z,17.10
2019-05-07T11:49:04.331Z,17.10
2019-05-07T11:51:42.615Z,17.20
2019-05-07T11:54:15.839Z,17.20
2019-05-07T11:56:45.347Z,17.20
2019-05-07T11:59:14.826Z,17.30
2019-05-07T12:01:48.975Z,17.30
2019-05-07T12:04:18.483Z,17.30
2019-05-07T12:06:47.968Z,17.30
2019-05-07T12:09:17.505Z,17.30
2019-05-07T12:11:46.981Z,17.20
2019-05-07T12:14:28.049Z,17.10
2019-05-07T12:16:47.696Z,17.10
2019-05-07T12:19:17.183Z,17.00
2019-05-07T12:21:47.219Z,16.90
2019-05-07T12:24:16.741Z,16.90
2019-05-07T12:26:46.263Z,16.80
2019-05-07T12:29:15.783Z,16.70
2019-05-07T12:31:56.120Z,16.70
2019-05-07T12:34:27.245Z,16.70
2019-05-07T12:36:56.736Z,16.70
2019-05-07T12:39:26.226Z,16.80
2019-05-07T12:41:56.027Z,16.80
2019-05-07T12:44:25.605Z,16.90
2019-05-07T12:46:54.951Z,17.10
2019-05-07T12:49:24.435Z,17.20
2019-05-07T12:51:55.642Z,17.30
2019-05-07T12:54:36.742Z,17.40
2019-05-07T12:57:06.526Z,17.60
2019-05-07T12:59:36.103Z,17.70
2019-05-07T13:02:33.884Z,17.80
2019-05-07T13:04:48.174Z,17.90
2019-05-07T13:07:25.245Z,18.00
2019-05-07T13:09:55.213Z,18.00
2019-05-07T13:12:24.724Z,18.10
2019-05-07T13:14:54.316Z,18.10
2019-05-07T13:17:23.784Z,18.30
2019-05-07T13:19:53.305Z,18.40
2019-05-07T13:22:22.793Z,18.40
2019-05-07T13:24:52.927Z,18.60
2019-05-07T13:27:22.509Z,18.80
2019-05-07T13:29:53.100Z,19.10
2019-05-07T13:32:24.484Z,19.30
2019-05-07T13:34:57.595Z,19.50
2019-05-07T13:37:29.338Z,19.60
2019-05-07T13:40:12.775Z,19.60
2019-05-07T13:42:44.122Z,19.60
2019-05-07T13:45:22.437Z,19.70
2019-05-07T13:47:54.260Z,19.70
2019-05-07T13:50:23.920Z,19.70
2019-05-07T13:52:53.621Z,19.60
2019-05-07T13:55:23.184Z,19.50
2019-05-07T13:57:52.808Z,19.40
2019-05-07T14:00:23.989Z,19.20
2019-05-07T14:02:54.934Z,19.10
2019-05-07T14:05:24.588Z,18.90
2019-05-07T14:07:54.274Z,18.80
2019-05-07T14:10:23.728Z,18.60
2019-05-07T14:12:53.347Z,18.50
2019-05-07T14:15:23.271Z,18.50
2019-05-07T14:17:54.972Z,18.50
2019-05-07T14:20:24.223Z,18.50
2019-05-07T14:22:53.765Z,18.50
2019-05-07T14:25:24.142Z,18.50
2019-05-07T14:27:53.853Z,18.40
2019-05-07T14:30:24.516Z,18.40
2019-05-07T14:33:01.934Z,18.40
2019-05-07T14:35:33.134Z,18.40
2019-05-07T14:38:06.982Z,18.50
2019-05-07T14:40:36.512Z,18.50
2019-05-07T14:43:13.696Z,18.60
2019-05-07T14:45:43.415Z,18.60
2019-05-07T14:48:13.021Z,18.60
2019-05-07T14:50:44.907Z,18.60
2019-05-07T14:53:14.035Z,18.50
2019-05-07T14:55:43.654Z,18.50
2019-05-07T14:58:13.217Z,18.40
2019-05-07T15:00:42.917Z,18.40
2019-05-07T15:03:12.786Z,18.40
2019-05-07T15:05:42.485Z,18.40
2019-05-07T15:08:14.419Z,18.40
2019-05-07T15:10:45.151Z,18.40
2019-05-07T15:13:14.889Z,18.40
2019-05-07T15:15:45.769Z,18.30
2019-05-07T15:18:22.269Z,18.30
2019-05-07T15:20:52.552Z,18.30
2019-05-07T15:23:24.137Z,18.20
2019-05-07T15:25:53.634Z,18.20
2019-05-07T15:28:23.576Z,18.20
2019-05-07T15:31:12.107Z,18.30
2019-05-07T15:33:41.895Z,18.30
2019-05-07T15:36:11.960Z,18.40
2019-05-07T15:38:42.900Z,18.50
2019-05-07T15:41:12.782Z,18.40
2019-05-07T15:43:45.831Z,18.50
2019-05-07T15:46:34.409Z,18.50
2019-05-07T15:48:55.196Z,18.50
2019-05-07T15:51:24.746Z,18.60
2019-05-07T15:53:55.996Z,18.70
2019-05-07T15:56:27.620Z,18.80
2019-05-07T15:58:57.074Z,19.00
2019-05-07T16:01:26.604Z,19.10
2019-05-07T16:03:56.266Z,19.20
2019-05-07T16:06:25.779Z,19.20
2019-05-07T16:08:56.949Z,19.10
2019-05-07T16:11:26.593Z,18.90
2019-05-07T16:14:06.868Z,18.70
2019-05-07T16:16:42.853Z,18.50
2019-05-07T16:19:26.201Z,18.30
2019-05-07T16:21:56.834Z,18.20
2019-05-07T16:24:26.286Z,18.10
2019-05-07T16:26:55.844Z,18.00
2019-05-07T16:29:25.365Z,18.00
2019-05-07T16:31:57.063Z,18.00
2019-05-07T16:34:26.851Z,18.00
2019-05-07T16:36:56.370Z,18.10
2019-05-07T16:39:25.903Z,18.10
2019-05-07T16:41:55.343Z,18.20
2019-05-07T16:44:24.853Z,18.20
2019-05-07T16:46:54.320Z,18.30
2019-05-07T16:49:23.822Z,18.30
2019-05-07T16:51:53.310Z,18.20
2019-05-07T16:54:22.818Z,18.20
2019-05-07T16:56:59.720Z,18.00
2019-05-07T16:59:29.209Z,17.90
2019-05-07T17:02:02.541Z,17.80
2019-05-07T17:04:33.117Z,17.60
2019-05-07T17:07:04.325Z,17.50
2019-05-07T17:09:35.376Z,17.40
2019-05-07T17:12:06.824Z,17.40
2019-05-07T17:14:36.330Z,17.20
2019-05-07T17:17:05.828Z,17.20
2019-05-07T17:19:35.353Z,17.10
2019-05-07T17:22:06.619Z,17.00
2019-05-07T17:24:36.065Z,17.00
2019-05-07T17:27:05.631Z,16.90
2019-05-07T17:29:35.082Z,16.90
2019-05-07T17:32:04.681Z,16.90
2019-05-07T17:34:34.210Z,16.80
2019-05-07T17:37:03.766Z,16.80
2019-05-07T17:39:33.268Z,16.70
2019-05-07T17:42:02.755Z,16.70
2019-05-07T17:44:32.537Z,16.60
2019-05-07T17:47:02.228Z,16.60
2019-05-07T17:49:32.434Z,16.60
2019-05-07T17:52:03.027Z,16.60
2019-05-07T17:54:32.576Z,16.60
2019-05-07T17:57:02.235Z,16.60
2019-05-07T17:59:32.266Z,16.60
2019-05-07T18:02:03.367Z,16.60
2019-05-07T18:04:47.694Z,16.50
2019-05-07T18:07:05.440Z,16.50
2019-05-07T18:09:35.002Z,16.50
2019-05-07T18:12:04.714Z,16.50
2019-05-07T18:14:34.236Z,16.50
2019-05-07T18:17:05.443Z,16.50
2019-05-07T18:19:35.011Z,16.50
2019-05-07T18:22:04.366Z,16.50
2019-05-07T18:24:33.831Z,16.50
2019-05-07T18:27:05.169Z,16.40
2019-05-07T18:29:34.666Z,16.30
2019-05-07T18:32:05.909Z,16.30
2019-05-07T18:34:35.453Z,16.20
2019-05-07T18:37:05.348Z,16.10
2019-05-07T18:39:34.814Z,16.10
2019-05-07T18:42:04.324Z,16.00
2019-05-07T18:44:33.869Z,16.00
2019-05-07T18:47:03.492Z,15.90
2019-05-07T18:49:33.003Z,15.90
2019-05-07T18:52:03.005Z,15.80
2019-05-07T18:54:32.559Z,15.70
2019-05-07T18:57:02.416Z,15.60
2019-05-07T18:59:34.064Z,15.50
2019-05-07T19:02:03.792Z,15.40
2019-05-07T19:04:33.411Z,15.30
2019-05-07T19:07:02.941Z,15.20
2019-05-07T19:09:32.513Z,15.10
2019-05-07T19:12:02.165Z,15.00
2019-05-07T19:14:33.274Z,14.90
2019-05-07T19:17:03.278Z,14.80
2019-05-07T19:19:32.967Z,14.70
2019-05-07T19:22:02.418Z,14.60
2019-05-07T19:24:44.704Z,14.50
2019-05-07T19:27:03.128Z,14.40
2019-05-07T19:29:32.848Z,14.40
2019-05-07T19:32:03.182Z,14.30
2019-05-07T19:34:32.840Z,14.20
2019-05-07T19:37:04.891Z,14.20
2019-05-07T19:39:34.384Z,14.10
2019-05-07T19:42:04.004Z,14.10
2019-05-07T19:44:33.537Z,14.00
2019-05-07T19:47:03.282Z,13.90
2019-05-07T19:49:32.842Z,13.90
2019-05-07T19:52:02.310Z,13.90
2019-05-07T19:54:32.379Z,13.90
2019-05-07T19:57:02.820Z,13.80
2019-05-07T19:59:32.782Z,13.80
2019-05-07T20:02:04.133Z,13.70
2019-05-07T20:04:33.646Z,13.70
2019-05-07T20:07:03.129Z,13.70
2019-05-07T20:09:34.259Z,13.70
2019-05-07T20:12:03.813Z,13.60
2019-05-07T20:14:33.418Z,13.60
2019-05-07T20:17:03.099Z,13.60
2019-05-07T20:19:33.011Z,13.60
2019-05-07T20:22:02.538Z,13.50
2019-05-07T20:24:32.622Z,13.50
2019-05-07T20:27:03.144Z,13.40
2019-05-07T20:29:32.848Z,13.40
2019-05-07T20:32:02.328Z,13.40
2019-05-07T20:34:33.231Z,13.30
2019-05-07T20:37:03.230Z,13.20
2019-05-07T20:39:33.033Z,13.20
2019-05-07T20:42:03.158Z,13.20
2019-05-07T20:44:32.698Z,13.10
2019-05-07T20:47:02.229Z,13.10
2019-05-07T20:49:32.160Z,13.00
2019-05-07T20:52:01.653Z,13.00
2019-05-07T20:54:33.164Z,13.00
2019-05-07T20:57:07.085Z,12.90
2019-05-07T20:59:36.627Z,12.90
2019-05-07T21:02:06.237Z,12.80
2019-05-07T21:04:35.810Z,12.80
2019-05-07T21:07:05.320Z,12.80
2019-05-07T21:09:34.802Z,12.80
2019-05-07T21:12:04.441Z,12.70
2019-05-07T21:14:33.951Z,12.70
2019-05-07T21:17:03.436Z,12.70
2019-05-07T21:19:33.271Z,12.60
2019-05-07T21:22:03.036Z,12.60
2019-05-07T21:24:33.224Z,12.60
2019-05-07T21:27:02.880Z,12.60
2019-05-07T21:29:32.795Z,12.60
2019-05-07T21:32:03.297Z,12.50
2019-05-07T21:34:32.987Z,12.50
2019-05-07T21:37:03.286Z,12.50
2019-05-07T21:39:33.210Z,12.40
2019-05-07T21:42:02.705Z,12.40
2019-05-07T21:44:32.716Z,12.30
2019-05-07T21:47:03.880Z,12.30
2019-05-07T21:49:33.535Z,12.30
2019-05-07T21:52:03.041Z,12.20
2019-05-07T21:54:34.213Z,12.20
2019-05-07T21:57:08.138Z,12.10
2019-05-07T21:59:39.233Z,12.10
2019-05-07T22:02:21.941Z,12.10
2019-05-07T22:04:52.895Z,12.00
2019-05-07T22:07:22.877Z,12.00
2019-05-07T22:09:54.339Z,12.00
2019-05-07T22:12:23.738Z,12.00
2019-05-07T22:14:53.211Z,11.90
2019-05-07T22:17:22.723Z,11.90
2019-05-07T22:19:52.594Z,11.90
2019-05-07T22:22:24.230Z,11.90
2019-05-07T22:24:53.504Z,11.90
2019-05-07T22:27:22.965Z,11.90
2019-05-07T22:29:52.773Z,11.90
2019-05-07T22:32:24.089Z,11.90
2019-05-07T22:34:55.190Z,11.90
2019-05-07T22:37:24.645Z,11.90
2019-05-07T22:39:54.147Z,11.90
2019-05-07T22:42:23.735Z,11.90
2019-05-07T22:44:53.227Z,11.90
2019-05-07T22:47:23.043Z,11.90
2019-05-07T22:49:53.626Z,11.90
2019-05-07T22:52:23.516Z,11.90
2019-05-07T22:54:53.079Z,11.90
2019-05-07T22:57:42.019Z,11.90
2019-05-07T23:00:14.009Z,11.90
2019-05-07T23:02:43.475Z,11.90
2019-05-07T23:05:13.191Z,11.90
2019-05-07T23:07:44.065Z,11.90
2019-05-07T23:10:13.784Z,11.90
2019-05-07T23:12:43.269Z,11.90
2019-05-07T23:15:13.742Z,11.90
2019-05-07T23:17:43.202Z,11.90
2019-05-07T23:20:13.015Z,11.90
2019-05-07T23:22:42.857Z,12.00
2019-05-07T23:25:12.702Z,12.00
2019-05-07T23:27:42.173Z,11.90
2019-05-07T23:30:12.973Z,12.00
2019-05-07T23:32:42.622Z,12.00
2019-05-07T23:35:12.789Z,12.00
2019-05-07T23:37:44.238Z,12.00
2019-05-07T23:40:32.455Z,12.00
2019-05-07T23:43:06.326Z,12.00
2019-05-07T23:45:35.853Z,12.00
2019-05-07T23:48:05.327Z,12.00
2019-05-07T23:50:34.832Z,12.00
2019-05-07T23:53:04.313Z,12.10
2019-05-07T23:55:33.855Z,12.10
2019-05-07T23:58:03.307Z,12.10
